Time;durP1;ratioP1;P1;durP2;ratioP2;P2;SDS_P1;SDS_P2;PMS_P1;PMS_P2;Temp;Humidity;BMP_temperature;BMP_pressure;BME280_temperature;BME280_humidity;BME280_pressure;Samples;Min_cycle;Max_cycle;Signal;HPM_P1;HPM_P2
2022/06/28 00:01:50;;;;;;;3.13;2.83;;;14.80;99.60;;;;;;5079483;28;20024;-61
2022/06/28 00:04:17;;;;;;;2.72;2.38;;;14.70;99.60;;;;;;5076484;28;20048;-61
2022/06/28 00:06:43;;;;;;;2.80;2.50;;;14.70;99.70;;;;;;5070614;28;20028;-61
2022/06/28 00:09:11;;;;;;;3.00;2.22;;;14.70;99.70;;;;;;5070539;28;20082;-61
2022/06/28 00:11:36;;;;;;;3.70;2.55;;;14.70;99.80;;;;;;5070628;28;20020;-61
2022/06/28 00:14:02;;;;;;;2.97;2.60;;;14.60;99.80;;;;;;5072621;28;20013;-61
2022/06/28 00:16:27;;;;;;;3.65;2.53;;;14.60;99.80;;;;;;5071350;28;20021;-61
2022/06/28 00:18:53;;;;;;;3.85;2.72;;;14.60;99.80;;;;;;5086126;28;20013;-61
2022/06/28 00:21:18;;;;;;;5.38;3.60;;;14.50;99.80;;;;;;5070737;28;20036;-61
2022/06/28 00:23:45;;;;;;;2.85;2.55;;;14.50;99.80;;;;;;5072910;28;20024;-61
2022/06/28 00:26:11;;;;;;;2.60;2.40;;;14.50;99.90;;;;;;5070769;28;20017;-61
2022/06/28 00:28:37;;;;;;;2.88;2.53;;;14.40;99.90;;;;;;5071211;28;20529;-61
2022/06/28 00:31:04;;;;;;;3.65;3.10;;;14.40;99.90;;;;;;5070198;28;20056;-61
2022/06/28 00:33:29;;;;;;;3.42;3.13;;;14.30;99.90;;;;;;5072192;28;20025;-61
2022/06/28 00:35:55;;;;;;;2.92;2.47;;;14.30;99.90;;;;;;5069668;28;20021;-61
2022/06/28 00:38:21;;;;;;;2.97;2.50;;;14.30;99.90;;;;;;5070533;28;20095;-61
2022/06/28 00:40:49;;;;;;;4.35;2.88;;;14.20;99.90;;;;;;5071585;28;20537;-61
2022/06/28 00:43:16;;;;;;;3.05;2.75;;;14.20;99.90;;;;;;5071051;28;20111;-61
2022/06/28 00:45:43;;;;;;;2.63;2.30;;;14.20;99.90;;;;;;5071549;28;20020;-61
2022/06/28 00:48:12;;;;;;;2.88;1.77;;;14.20;99.90;;;;;;5072006;28;20028;-61
2022/06/28 00:50:38;;;;;;;2.92;1.65;;;14.10;99.90;;;;;;5072138;28;20028;-61
2022/06/28 00:53:09;;;;;;;1.83;1.65;;;14.00;99.90;;;;;;5069797;28;20039;-60
2022/06/28 00:55:35;;;;;;;2.05;1.85;;;14.00;99.90;;;;;;5070587;28;20027;-61
2022/06/28 00:58:01;;;;;;;2.42;2.22;;;14.00;99.90;;;;;;5072209;28;20036;-61
2022/06/28 01:00:28;;;;;;;2.03;1.80;;;13.90;99.90;;;;;;5071062;28;20048;-61
2022/06/28 01:02:54;;;;;;;2.08;1.88;;;13.90;99.90;;;;;;5070174;28;20032;-61
2022/06/28 01:05:20;;;;;;;3.10;2.65;;;13.90;99.90;;;;;;5069289;28;20024;-60
2022/06/28 01:07:46;;;;;;;2.55;1.70;;;13.90;99.90;;;;;;5102756;28;20025;-60
2022/06/28 01:10:11;;;;;;;2.13;1.75;;;13.90;99.90;;;;;;5071342;28;20024;-61
2022/06/28 01:12:37;;;;;;;2.10;1.70;;;13.80;99.90;;;;;;5070932;28;20055;-61
2022/06/28 01:15:03;;;;;;;2.33;1.90;;;13.80;99.90;;;;;;5069397;28;20020;-61
2022/06/28 01:17:29;;;;;;;4.50;4.10;;;13.90;99.90;;;;;;5070905;28;20384;-60
2022/06/28 01:19:54;;;;;;;4.38;3.97;;;13.80;99.90;;;;;;5071070;28;20035;-61
2022/06/28 01:22:21;;;;;;;3.95;3.55;;;13.70;99.90;;;;;;5072231;28;20025;-61
2022/06/28 01:24:46;;;;;;;3.22;2.90;;;13.70;99.90;;;;;;5071480;28;20024;-60
2022/06/28 01:27:13;;;;;;;2.95;2.65;;;13.70;99.90;;;;;;5071108;28;20040;-60
2022/06/28 01:29:38;;;;;;;2.70;2.30;;;13.70;99.90;;;;;;5068291;28;20032;-60
2022/06/28 01:32:04;;;;;;;4.70;2.70;;;13.70;99.90;;;;;;5069558;28;20016;-61
2022/06/28 01:34:30;;;;;;;2.97;2.65;;;13.80;99.90;;;;;;5071683;28;20127;-61
2022/06/28 01:36:56;;;;;;;2.97;2.35;;;13.80;99.90;;;;;;5070354;28;20082;-61
2022/06/28 01:39:21;;;;;;;2.75;2.38;;;13.80;99.90;;;;;;5082702;28;20523;-61
2022/06/28 01:41:50;;;;;;;3.17;2.60;;;13.80;99.90;;;;;;5076472;28;20021;-61
2022/06/28 01:44:15;;;;;;;2.55;2.33;;;13.80;99.90;;;;;;5069900;28;20033;-60
2022/06/28 01:46:42;;;;;;;2.95;2.65;;;13.80;99.90;;;;;;5069235;28;20035;-61
2022/06/28 01:49:07;;;;;;;6.65;2.50;;;13.70;99.90;;;;;;5070234;28;20031;-61
2022/06/28 01:51:33;;;;;;;1.70;1.40;;;13.60;99.90;;;;;;5069925;28;20032;-61
2022/06/28 01:53:59;;;;;;;1.60;1.10;;;13.50;99.90;;;;;;5069112;28;20024;-61
2022/06/28 01:56:25;;;;;;;1.17;1.02;;;13.50;99.90;;;;;;5070850;28;20387;-61
2022/06/28 01:58:50;;;;;;;2.20;1.90;;;13.40;99.90;;;;;;5069633;28;20123;-60
2022/06/28 02:01:16;;;;;;;3.28;2.17;;;13.40;99.90;;;;;;5069088;28;20078;-61
2022/06/28 02:03:42;;;;;;;2.70;2.20;;;13.50;99.90;;;;;;5067702;28;20032;-61
2022/06/28 02:06:09;;;;;;;4.28;2.15;;;13.50;99.90;;;;;;5069882;28;20056;-60
2022/06/28 02:08:35;;;;;;;4.45;2.38;;;13.50;99.90;;;;;;5069820;28;20469;-61
2022/06/28 02:11:02;;;;;;;3.05;2.33;;;13.50;99.90;;;;;;5066890;28;20495;-61
2022/06/28 02:13:28;;;;;;;3.05;2.75;;;13.50;99.90;;;;;;5071201;28;20503;-61
2022/06/28 02:15:54;;;;;;;2.03;1.83;;;13.40;99.90;;;;;;5070450;28;20017;-60
2022/06/28 02:18:20;;;;;;;1.30;1.10;;;13.30;99.90;;;;;;5070037;28;20468;-60
2022/06/28 02:20:45;;;;;;;1.30;0.90;;;13.30;99.90;;;;;;5069471;28;20025;-61
2022/06/28 02:23:11;;;;;;;1.27;0.98;;;13.20;99.90;;;;;;5068418;28;20460;-61
2022/06/28 02:25:36;;;;;;;22.13;1.10;;;13.20;99.90;;;;;;5072690;28;20024;-61
2022/06/28 02:28:02;;;;;;;1.13;0.80;;;13.30;99.90;;;;;;5071465;28;20020;-61
2022/06/28 02:30:28;;;;;;;0.93;0.73;;;13.20;99.90;;;;;;5071274;28;20024;-61
2022/06/28 02:33:04;;;;;;;0.73;0.60;;;13.20;99.90;;;;;;5066926;28;20032;-60
2022/06/28 02:40:58;;;;;;;2.67;1.70;;;13.10;99.90;;;;;;5076454;28;20082;-60
2022/06/28 02:43:24;;;;;;;3.50;3.17;;;13.10;99.90;;;;;;5081150;28;20418;-60
2022/06/28 02:45:49;;;;;;;4.10;3.33;;;13.10;99.90;;;;;;5069187;28;20054;-60
2022/06/28 02:48:15;;;;;;;4.80;4.13;;;13.10;99.90;;;;;;5069330;28;20328;-61
2022/06/28 02:50:40;;;;;;;5.30;4.03;;;13.00;99.90;;;;;;5070851;28;20025;-60
2022/06/28 02:53:06;;;;;;;5.50;4.05;;;13.10;99.90;;;;;;5068418;28;20017;-60
2022/06/28 02:55:31;;;;;;;5.65;3.92;;;13.10;99.90;;;;;;5069128;28;20024;-61
2022/06/28 02:57:57;;;;;;;5.63;2.17;;;13.00;99.90;;;;;;5065723;28;20253;-61
2022/06/28 03:00:23;;;;;;;3.72;1.80;;;13.00;99.90;;;;;;5069193;28;20089;-61
2022/06/28 03:02:49;;;;;;;1.83;1.58;;;13.00;99.90;;;;;;5068857;28;20024;-60
2022/06/28 03:05:17;;;;;;;4.03;1.60;;;13.00;99.90;;;;;;5070206;28;20032;-61
2022/06/28 03:07:44;;;;;;;3.80;3.47;;;13.00;99.90;;;;;;5070686;28;20037;-60
2022/06/28 03:10:10;;;;;;;4.68;4.15;;;12.90;99.90;;;;;;5070827;28;20027;-60
2022/06/28 03:12:36;;;;;;;5.13;4.40;;;12.80;99.90;;;;;;5072477;28;20048;-60
2022/06/28 03:15:02;;;;;;;4.07;3.67;;;12.80;99.90;;;;;;5073386;28;20468;-60
2022/06/28 03:17:28;;;;;;;6.32;3.63;;;12.80;99.90;;;;;;5072660;28;20024;-60
2022/06/28 03:19:53;;;;;;;5.13;4.20;;;12.80;99.90;;;;;;5073047;28;20036;-60
2022/06/28 03:22:19;;;;;;;5.45;4.82;;;12.80;99.90;;;;;;5069491;28;20021;-60
2022/06/28 03:24:44;;;;;;;7.07;5.60;;;12.70;99.90;;;;;;5074116;28;20024;-60
2022/06/28 03:27:10;;;;;;;6.70;5.50;;;12.70;99.90;;;;;;5072778;28;20533;-60
2022/06/28 03:29:36;;;;;;;7.63;6.55;;;12.70;99.90;;;;;;5072786;28;20459;-61
2022/06/28 03:32:01;;;;;;;10.57;6.50;;;12.60;99.90;;;;;;5069733;28;20033;-60
2022/06/28 03:34:27;;;;;;;7.05;5.60;;;12.70;99.90;;;;;;5074197;28;20029;-60
2022/06/28 03:36:52;;;;;;;9.05;5.88;;;12.60;99.90;;;;;;5072376;28;20035;-60
2022/06/28 03:39:18;;;;;;;5.78;4.90;;;12.60;99.90;;;;;;5072385;28;20017;-60
2022/06/28 03:41:44;;;;;;;6.03;5.43;;;12.70;99.90;;;;;;5071506;28;20028;-60
2022/06/28 03:44:10;;;;;;;6.43;5.20;;;12.70;99.90;;;;;;5073647;28;20084;-61
2022/06/28 03:46:35;;;;;;;6.55;4.75;;;12.70;99.90;;;;;;5076533;28;20433;-60
2022/06/28 03:49:01;;;;;;;6.35;5.25;;;12.70;99.90;;;;;;5073508;28;20036;-60
2022/06/28 03:51:26;;;;;;;7.32;5.68;;;12.70;99.90;;;;;;5071495;28;20024;-60
2022/06/28 03:53:52;;;;;;;7.13;5.22;;;12.80;99.90;;;;;;5074029;28;20043;-60
2022/06/28 03:56:17;;;;;;;7.90;5.78;;;12.80;99.90;;;;;;5070648;28;20389;-60
2022/06/28 03:58:43;;;;;;;8.05;5.90;;;12.80;99.90;;;;;;5071557;28;20166;-60
2022/06/28 04:01:09;;;;;;;6.72;5.70;;;12.80;99.90;;;;;;5073518;28;20070;-60
2022/06/28 04:03:35;;;;;;;7.07;5.80;;;12.80;99.90;;;;;;5072895;28;20587;-60
2022/06/28 04:06:01;;;;;;;5.95;5.07;;;12.70;99.90;;;;;;5070318;28;20024;-60
2022/06/28 04:08:27;;;;;;;8.50;6.25;;;12.70;99.90;;;;;;5072491;28;20484;-60
2022/06/28 04:13:38;;;;;;;7.10;5.68;;;12.70;99.90;;;;;;5069534;28;20090;-60
2022/06/28 04:16:04;;;;;;;7.60;5.80;;;12.80;99.90;;;;;;5072849;28;20020;-60
2022/06/28 04:18:29;;;;;;;6.05;4.65;;;12.80;99.90;;;;;;5072005;28;20157;-60
2022/06/28 04:20:56;;;;;;;9.18;5.25;;;12.90;99.90;;;;;;5071066;28;20111;-60
2022/06/28 04:23:21;;;;;;;5.85;5.25;;;12.90;99.90;;;;;;5070515;28;20028;-60
2022/06/28 04:25:47;;;;;;;10.15;5.13;;;12.90;99.90;;;;;;5072205;28;20078;-60
2022/06/28 04:28:12;;;;;;;5.32;4.53;;;13.00;99.90;;;;;;5070191;28;20024;-60
2022/06/28 04:30:38;;;;;;;5.43;4.90;;;13.00;99.90;;;;;;5070541;28;20024;-60
2022/06/28 04:33:03;;;;;;;6.00;4.40;;;13.10;99.90;;;;;;5071198;28;20023;-60
2022/06/28 04:35:29;;;;;;;6.82;4.72;;;13.10;99.90;;;;;;5071842;28;20096;-60
2022/06/28 04:37:54;;;;;;;8.32;4.88;;;13.10;99.90;;;;;;5069123;28;20042;-60
2022/06/28 04:40:20;;;;;;;5.88;4.47;;;13.20;99.90;;;;;;5070508;28;20494;-60
2022/06/28 04:42:45;;;;;;;6.07;4.20;;;13.20;99.90;;;;;;5070023;28;20036;-60
2022/06/28 04:45:11;;;;;;;6.65;4.72;;;13.30;99.90;;;;;;5071606;28;20082;-60
2022/06/28 04:47:37;;;;;;;7.57;5.60;;;13.30;99.90;;;;;;5070841;28;20025;-61
2022/06/28 04:50:02;;;;;;;9.30;6.43;;;13.30;99.90;;;;;;5070094;28;20380;-60
2022/06/28 04:52:28;;;;;;;8.85;6.18;;;13.40;99.90;;;;;;5072795;28;20009;-60
2022/06/28 04:54:53;;;;;;;8.75;5.72;;;13.40;99.90;;;;;;5070825;28;20016;-60
2022/06/28 04:57:19;;;;;;;10.90;7.43;;;13.40;99.90;;;;;;5070714;28;20028;-60
2022/06/28 04:59:44;;;;;;;6.30;5.05;;;13.40;99.90;;;;;;5067130;28;20570;-60
2022/06/28 05:02:10;;;;;;;6.97;6.18;;;13.50;99.90;;;;;;5063301;28;20033;-60
2022/06/28 05:04:35;;;;;;;4.45;4.05;;;13.50;99.90;;;;;;5073264;28;20373;-60
2022/06/28 05:07:01;;;;;;;8.98;5.03;;;13.50;99.90;;;;;;5093537;28;20509;-60
2022/06/28 05:09:26;;;;;;;8.15;5.38;;;13.60;99.90;;;;;;5064265;28;20480;-60
2022/06/28 05:11:52;;;;;;;6.95;5.03;;;13.60;99.90;;;;;;5061537;28;20024;-60
2022/06/28 05:14:17;;;;;;;4.45;3.78;;;13.60;99.90;;;;;;5056908;28;20025;-60
2022/06/28 05:16:45;;;;;;;5.18;3.90;;;13.70;99.90;;;;;;5060432;28;20017;-60
2022/06/28 05:19:11;;;;;;;5.65;3.88;;;13.70;99.90;;;;;;5056777;28;20048;-60
2022/06/28 05:21:37;;;;;;;5.57;4.00;;;13.80;99.90;;;;;;5060199;28;20485;-60
2022/06/28 05:24:03;;;;;;;5.45;3.63;;;13.80;99.90;;;;;;5057383;28;20558;-60
2022/06/28 05:26:28;;;;;;;5.30;4.30;;;13.80;99.90;;;;;;5061807;28;20021;-60
2022/06/28 05:28:54;;;;;;;7.28;4.70;;;13.90;99.90;;;;;;5066686;28;20024;-60
2022/06/28 05:31:19;;;;;;;5.80;4.07;;;14.00;99.90;;;;;;5071789;28;20036;-60
2022/06/28 05:33:45;;;;;;;7.05;4.00;;;14.00;99.90;;;;;;5069090;28;20099;-60
2022/06/28 05:36:10;;;;;;;5.85;3.67;;;14.00;99.90;;;;;;5069105;28;20163;-60
2022/06/28 05:38:36;;;;;;;7.40;3.70;;;14.00;99.90;;;;;;5058634;28;20024;-60
2022/06/28 05:41:01;;;;;;;7.50;4.50;;;14.10;99.90;;;;;;5068189;28;20025;-60
2022/06/28 05:43:27;;;;;;;6.85;3.90;;;14.10;99.90;;;;;;5066568;28;20033;-60
2022/06/28 05:45:52;;;;;;;5.63;4.00;;;14.20;99.90;;;;;;5068981;28;20025;-60
2022/06/28 05:48:38;;;;;;;;;;;;;;;;;;;;;
2022/06/28 05:51:04;;;;;;;9.27;5.55;;;14.20;99.90;;;;;;5069355;28;20025;-60
2022/06/28 05:53:30;;;;;;;6.78;4.05;;;14.20;99.90;;;;;;5070958;28;20539;-60
2022/06/28 05:55:56;;;;;;;8.07;4.30;;;14.30;99.90;;;;;;5069236;28;20025;-60
2022/06/28 05:58:29;;;;;;;6.70;4.10;;;14.30;99.90;;;;;;5065815;28;20065;-60
2022/06/28 06:00:54;;;;;;;8.50;4.35;;;14.40;99.90;;;;;;5063240;28;20515;-60
2022/06/28 06:03:20;;;;;;;7.90;4.28;;;14.40;99.90;;;;;;5062177;28;20117;-60
2022/06/28 06:06:18;;;;;;;;;;;;;;;;;;;;;
2022/06/28 06:08:44;;;;;;;7.13;4.03;;;14.50;99.90;;;;;;5059654;28;20054;-60
2022/06/28 06:11:10;;;;;;;4.53;3.00;;;14.50;99.90;;;;;;5060228;28;20471;-60
2022/06/28 06:13:36;;;;;;;5.75;3.08;;;14.60;99.90;;;;;;5067895;28;20021;-60
2022/06/28 06:16:03;;;;;;;6.53;3.45;;;14.60;99.90;;;;;;5075318;28;20028;-60
2022/06/28 06:18:29;;;;;;;6.47;2.72;;;14.70;99.90;;;;;;5089987;28;20099;-60
2022/06/28 06:20:55;;;;;;;5.78;2.60;;;14.70;99.90;;;;;;5060777;28;20426;-60
2022/06/28 06:23:20;;;;;;;6.57;3.47;;;14.80;99.90;;;;;;5066120;28;20082;-60
2022/06/28 06:25:46;;;;;;;8.18;3.45;;;14.80;99.90;;;;;;5066205;28;20029;-60
2022/06/28 06:28:11;;;;;;;9.35;3.88;;;14.90;99.90;;;;;;5067174;28;20029;-60
2022/06/28 06:30:37;;;;;;;8.93;3.80;;;15.00;99.90;;;;;;5060715;28;20032;-60
2022/06/28 06:33:03;;;;;;;7.65;3.97;;;15.00;99.90;;;;;;5065270;28;20129;-61
2022/06/28 06:35:29;;;;;;;6.53;3.25;;;15.10;99.90;;;;;;5067726;28;20456;-60
2022/06/28 06:38:00;;;;;;;8.07;3.17;;;15.10;99.90;;;;;;5055711;28;20103;-60
2022/06/28 06:40:27;;;;;;;7.85;3.38;;;15.20;99.90;;;;;;5068689;28;20021;-60
2022/06/28 06:42:52;;;;;;;8.95;3.10;;;15.20;99.90;;;;;;5057617;28;20021;-60
2022/06/28 06:45:18;;;;;;;9.02;2.80;;;15.30;99.90;;;;;;5056022;28;20021;-60
2022/06/28 06:47:43;;;;;;;7.15;3.30;;;15.40;99.90;;;;;;5060298;28;20044;-60
2022/06/28 06:50:09;;;;;;;9.15;3.30;;;15.40;99.90;;;;;;5061673;28;20067;-60
2022/06/28 06:52:35;;;;;;;6.40;3.55;;;15.40;99.90;;;;;;5065276;28;20037;-60
2022/06/28 06:55:02;;;;;;;6.80;3.17;;;15.50;99.90;;;;;;5056020;28;20017;-60
2022/06/28 06:57:27;;;;;;;10.30;4.07;;;15.50;99.90;;;;;;5063819;28;20025;-60
2022/06/28 06:59:53;;;;;;;9.55;3.53;;;15.60;99.90;;;;;;5054130;28;20112;-60
2022/06/28 07:02:18;;;;;;;7.40;3.67;;;15.60;99.90;;;;;;5056802;28;20103;-60
2022/06/28 07:04:44;;;;;;;11.18;3.28;;;15.70;99.90;;;;;;5070031;28;20043;-60
2022/06/28 07:07:09;;;;;;;9.18;3.33;;;15.80;99.90;;;;;;5067486;28;20024;-60
2022/06/28 07:09:35;;;;;;;9.48;3.55;;;15.80;99.90;;;;;;5054788;28;20021;-60
2022/06/28 07:12:00;;;;;;;9.20;2.97;;;15.90;99.90;;;;;;5057135;28;20079;-60
2022/06/28 07:14:26;;;;;;;8.57;3.35;;;16.00;99.90;;;;;;5055105;28;20083;-60
2022/06/28 07:16:51;;;;;;;4.97;2.45;;;16.00;99.90;;;;;;5089412;28;20384;-60
2022/06/28 07:19:17;;;;;;;15.30;4.22;;;16.10;99.90;;;;;;5055359;28;20061;-59
2022/06/28 07:21:44;;;;;;;7.65;3.90;;;16.20;99.90;;;;;;5057946;28;20111;-60
2022/06/28 07:24:10;;;;;;;11.75;4.97;;;16.20;99.90;;;;;;5055072;28;20057;-60
2022/06/28 07:26:36;;;;;;;13.50;4.07;;;16.30;99.90;;;;;;5054919;28;20488;-60
2022/06/28 07:29:02;;;;;;;7.55;3.08;;;16.30;99.90;;;;;;5064264;28;20101;-60
2022/06/28 07:31:30;;;;;;;10.65;4.18;;;16.40;99.90;;;;;;5058760;28;20103;-60
2022/06/28 07:33:56;;;;;;;10.90;3.47;;;16.40;99.90;;;;;;5061214;28;20029;-61
2022/06/28 07:36:22;;;;;;;9.10;3.05;;;16.50;99.40;;;;;;5058262;28;20092;-60
2022/06/28 07:38:48;;;;;;;5.80;2.47;;;16.50;99.30;;;;;;5055190;28;20024;-60
2022/06/28 07:41:14;;;;;;;7.15;2.28;;;16.60;99.10;;;;;;5055206;28;20029;-60
2022/06/28 07:43:39;;;;;;;8.77;1.90;;;16.70;99.10;;;;;;5056270;28;20036;-60
2022/06/28 07:46:05;;;;;;;6.32;2.10;;;16.70;99.00;;;;;;5054763;28;20423;-60
2022/06/28 07:48:55;;;;;;;;;;;;;;;;;;;;;
2022/06/28 07:54:05;;;;;;;10.65;4.15;;;17.00;98.40;;;;;;5051463;28;20151;-60
2022/06/28 07:56:31;;;;;;;10.55;3.67;;;17.00;97.90;;;;;;5060341;28;20029;-60
2022/06/28 07:58:57;;;;;;;11.95;4.30;;;17.10;96.70;;;;;;5073522;28;20056;-61
2022/06/28 08:01:22;;;;;;;10.27;3.58;;;17.10;96.70;;;;;;5055172;28;20400;-60
2022/06/28 08:03:48;;;;;;;7.82;2.53;;;17.20;96.10;;;;;;5055784;28;20064;-60
2022/06/28 08:06:14;;;;;;;6.40;2.35;;;17.20;95.60;;;;;;5058373;28;20029;-61
2022/06/28 08:08:40;;;;;;;7.10;2.47;;;17.30;95.30;;;;;;5061706;28;20079;-60
2022/06/28 08:11:06;;;;;;;5.68;2.38;;;17.40;93.90;;;;;;5056010;28;20095;-60
2022/06/28 08:13:31;;;;;;;9.95;2.90;;;17.40;94.00;;;;;;5057211;28;20027;-60
2022/06/28 08:16:05;;;;;;;8.82;3.38;;;17.50;93.70;;;;;;5055074;28;20028;-60
2022/06/28 08:18:34;;;;;;;6.88;2.45;;;17.50;92.90;;;;;;5070683;28;20059;-60
2022/06/28 08:20:59;;;;;;;9.73;2.22;;;17.50;92.50;;;;;;5056320;28;20472;-61
2022/06/28 08:23:25;;;;;;;10.07;2.28;;;17.60;92.80;;;;;;5057372;28;20036;-60
2022/06/28 08:25:50;;;;;;;5.38;1.23;;;17.70;92.10;;;;;;5055935;28;20036;-60
2022/06/28 08:28:16;;;;;;;7.88;1.85;;;17.70;91.60;;;;;;5057127;28;20460;-61
2022/06/28 08:30:42;;;;;;;6.53;2.10;;;17.80;91.90;;;;;;5056347;28;20025;-61
2022/06/28 08:33:08;;;;;;;6.40;1.50;;;17.90;91.70;;;;;;5056871;28;20021;-61
2022/06/28 08:35:34;;;;;;;8.30;1.83;;;17.90;90.70;;;;;;5056322;28;20497;-61
2022/06/28 08:38:01;;;;;;;6.22;1.63;;;18.00;88.40;;;;;;5057504;28;20028;-60
2022/06/28 08:40:27;;;;;;;6.45;2.15;;;18.00;88.60;;;;;;5058649;28;20043;-61
2022/06/28 08:42:55;;;;;;;3.65;1.10;;;18.10;88.50;;;;;;5053386;28;20027;-60
2022/06/28 08:45:22;;;;;;;5.28;1.63;;;18.20;87.10;;;;;;5060002;28;20392;-60
2022/06/28 08:47:51;;;;;;;3.30;1.10;;;18.20;85.90;;;;;;5052543;28;20396;-60
2022/06/28 08:50:22;;;;;;;;;;;18.20;85.40;;;;;;5062536;28;20495;-61
2022/06/28 08:52:48;;;;;;;4.70;1.10;;;18.30;85.10;;;;;;5061566;28;20011;-61
2022/06/28 08:55:15;;;;;;;2.80;0.68;;;18.30;83.10;;;;;;5065717;28;20023;-60
2022/06/28 08:57:41;;;;;;;6.00;1.27;;;18.30;82.90;;;;;;5055272;28;20024;-60
2022/06/28 09:00:08;;;;;;;4.65;1.20;;;18.40;83.00;;;;;;5057920;28;20487;-60
2022/06/28 09:02:46;;;;;;;5.15;1.08;;;18.60;82.10;;;;;;5060917;28;20103;-61
2022/06/28 09:05:51;;;;;;;4.93;1.10;;;18.60;81.10;;;;;;5072436;28;20027;-60
2022/06/28 09:08:16;;;;;;;3.83;0.80;;;18.60;79.40;;;;;;5069354;28;20048;-61
2022/06/28 09:10:43;;;;;;;6.60;1.02;;;18.60;80.00;;;;;;5069898;28;20485;-61
2022/06/28 09:13:12;;;;;;;5.60;1.00;;;18.70;79.20;;;;;;5071123;28;20060;-61
2022/06/28 09:15:54;;;;;;;4.05;1.77;;;18.80;80.40;;;;;;5068846;28;20044;-61
2022/06/28 09:18:22;;;;;;;6.82;1.23;;;18.80;78.40;;;;;;5071520;28;20025;-61
2022/06/28 09:20:52;;;;;;;4.45;0.70;;;18.80;78.80;;;;;;5058172;28;20016;-61
2022/06/28 09:23:25;;;;;;;1.30;0.50;;;18.90;78.00;;;;;;5063410;28;20025;-61
2022/06/28 09:25:53;;;;;;;5.18;0.80;;;18.90;77.10;;;;;;5054992;28;20055;-61
2022/06/28 09:28:29;;;;;;;1.85;0.40;;;19.00;76.00;;;;;;5059369;28;20157;-61
2022/06/28 09:31:14;;;;;;;2.88;0.70;;;19.00;76.60;;;;;;5068062;28;20021;-61
2022/06/28 09:33:40;;;;;;;3.67;0.70;;;19.20;75.20;;;;;;5060319;28;20481;-61
2022/06/28 09:36:10;;;;;;;2.60;0.60;;;19.20;75.70;;;;;;5058884;28;20021;-61
2022/06/28 09:38:35;;;;;;;;;;;19.30;76.20;;;;;;5073094;28;20038;-61
2022/06/28 09:41:01;;;;;;;3.00;0.50;;;19.30;76.10;;;;;;5074552;28;19904;-61
2022/06/28 09:43:33;;;;;;;3.03;0.70;;;19.40;75.70;;;;;;5056912;28;20108;-61
2022/06/28 09:46:03;;;;;;;2.63;0.40;;;19.50;74.40;;;;;;5057923;28;20032;-61
2022/06/28 09:48:36;;;;;;;1.42;0.40;;;19.50;74.50;;;;;;5069282;28;20024;-61
2022/06/28 09:51:02;;;;;;;1.55;0.40;;;19.60;75.10;;;;;;5066991;28;20028;-61
2022/06/28 09:53:29;;;;;;;0.98;0.32;;;19.60;73.10;;;;;;5062454;28;20021;-61
2022/06/28 09:56:03;;;;;;;3.60;1.10;;;19.70;73.50;;;;;;5063182;28;20377;-61
2022/06/28 09:58:30;;;;;;;1.88;0.40;;;19.80;73.70;;;;;;5059178;28;20055;-62
2022/06/28 10:00:56;;;;;;;2.95;0.40;;;19.80;72.90;;;;;;5060380;28;20049;-61
2022/06/28 10:03:22;;;;;;;2.05;0.50;;;19.90;73.00;;;;;;5058634;28;20438;-61
2022/06/28 10:05:48;;;;;;;1.52;0.40;;;19.90;71.80;;;;;;5059948;28;20545;-61
2022/06/28 10:08:14;;;;;;;1.85;0.40;;;20.00;71.90;;;;;;5073654;28;20453;-61
2022/06/28 10:10:41;;;;;;;2.47;0.45;;;20.00;71.80;;;;;;5061011;28;20107;-61
2022/06/28 10:15:58;;;;;;;1.65;0.40;;;20.20;71.90;;;;;;5066407;28;20067;-61
2022/06/28 10:18:27;;;;;;;4.90;1.30;;;20.30;71.90;;;;;;5061619;28;20012;-61
2022/06/28 10:20:52;;;;;;;1.23;0.40;;;20.30;72.10;;;;;;5065429;28;20099;-61
2022/06/28 10:23:40;;;;;;;4.35;0.90;;;20.40;71.20;;;;;;5059285;28;20024;-61
2022/06/28 10:26:15;;;;;;;2.60;0.45;;;20.40;71.00;;;;;;5063252;28;20071;-61
2022/06/28 10:28:55;;;;;;;2.50;0.50;;;20.50;71.60;;;;;;5097109;28;20500;-62
2022/06/28 10:31:21;;;;;;;4.25;0.60;;;20.50;71.20;;;;;;5061459;28;20029;-61
2022/06/28 10:33:57;;;;;;;2.42;0.50;;;20.60;71.40;;;;;;5066387;28;20498;-61
2022/06/28 10:36:25;;;;;;;2.70;0.55;;;20.70;71.10;;;;;;5056339;28;20084;-61
2022/06/28 10:39:09;;;;;;;3.95;0.60;;;20.70;71.40;;;;;;5089533;28;20025;-61
2022/06/28 10:41:47;;;;;;;3.50;0.65;;;20.80;69.80;;;;;;5063216;28;20095;-61
2022/06/28 10:44:31;;;;;;;1.27;0.50;;;20.80;71.40;;;;;;5071845;28;20100;-61
2022/06/28 10:47:06;;;;;;;2.33;0.85;;;20.90;71.30;;;;;;5059497;28;20065;-61
2022/06/28 10:49:48;;;;;;;3.72;1.23;;;20.90;70.50;;;;;;5065370;28;20032;-61
2022/06/28 10:52:23;;;;;;;2.75;0.55;;;20.90;70.10;;;;;;5063035;28;20033;-61
2022/06/28 10:54:51;;;;;;;3.92;0.47;;;21.00;70.80;;;;;;5059346;28;20029;-61
2022/06/28 10:57:26;;;;;;;2.22;0.70;;;21.10;70.60;;;;;;5060907;28;20020;-61
2022/06/28 10:59:54;;;;;;;1.70;0.60;;;21.20;70.90;;;;;;5058901;28;20048;-61
2022/06/28 11:02:20;;;;;;;1.98;0.50;;;21.30;71.10;;;;;;5059965;28;20396;-62
2022/06/28 11:04:47;;;;;;;0.93;0.40;;;21.40;71.10;;;;;;5059315;28;20025;-61
2022/06/28 11:07:43;;;;;;;1.73;0.50;;;21.50;71.00;;;;;;5060461;28;20477;-61
2022/06/28 11:10:10;;;;;;;2.30;0.60;;;21.70;70.00;;;;;;5048404;28;20037;-61
2022/06/28 11:12:38;;;;;;;1.92;0.50;;;21.70;69.90;;;;;;5055733;28;20021;-61
2022/06/28 11:15:10;;;;;;;1.57;0.47;;;21.80;69.00;;;;;;5058794;28;20024;-61
2022/06/28 11:17:41;;;;;;;2.50;0.40;;;21.90;68.40;;;;;;5052509;28;20017;-61
2022/06/28 11:20:21;;;;;;;2.08;0.43;;;22.00;67.20;;;;;;5067166;28;20013;-61
2022/06/28 11:22:51;;;;;;;2.25;0.52;;;22.00;67.50;;;;;;5064213;28;20108;-61
2022/06/28 11:25:21;;;;;;;2.30;0.50;;;22.10;67.60;;;;;;5062390;28;20104;-61
2022/06/28 11:27:56;;;;;;;1.08;0.40;;;22.20;67.00;;;;;;5065820;28;20028;-61
2022/06/28 11:30:26;;;;;;;2.70;0.70;;;22.30;67.10;;;;;;5064271;28;20054;-61
2022/06/28 11:32:54;;;;;;;3.58;0.45;;;22.40;66.20;;;;;;5069907;28;20100;-61
2022/06/28 11:35:30;;;;;;;2.20;0.60;;;22.40;67.00;;;;;;5069131;28;20095;-62
2022/06/28 11:37:58;;;;;;;3.50;1.02;;;22.60;66.80;;;;;;5072759;28;20017;-62
2022/06/28 11:40:45;;;;;;;5.72;1.00;;;22.60;65.90;;;;;;5075366;28;20016;-61
2022/06/28 11:43:13;;;;;;;2.95;0.60;;;22.70;65.20;;;;;;5074815;28;20021;-61
2022/06/28 11:45:41;;;;;;;2.90;0.40;;;22.60;64.40;;;;;;5071796;28;20476;-61
2022/06/28 11:48:15;;;;;;;1.15;0.40;;;22.60;63.30;;;;;;5060728;28;20028;-61
2022/06/28 11:50:42;;;;;;;2.72;0.57;;;22.70;64.60;;;;;;5063729;28;20032;-62
2022/06/28 11:53:08;;;;;;;3.22;0.60;;;22.80;63.60;;;;;;5070843;28;20095;-62
2022/06/28 11:55:40;;;;;;;4.15;0.77;;;22.70;63.30;;;;;;5062362;28;20104;-62
2022/06/28 11:58:13;;;;;;;2.72;0.50;;;22.90;62.10;;;;;;5070913;28;20554;-61
2022/06/28 12:00:39;;;;;;;1.83;0.35;;;23.00;62.40;;;;;;5071656;28;20033;-61
2022/06/28 12:03:05;;;;;;;1.20;0.50;;;23.30;63.00;;;;;;5088280;28;20036;-61
2022/06/28 12:05:33;;;;;;;3.50;0.70;;;23.70;62.60;;;;;;5072679;28;20078;-62
2022/06/28 12:07:59;;;;;;;2.78;0.60;;;23.70;61.20;;;;;;5074907;28;20035;-62
2022/06/28 12:10:29;;;;;;;2.28;0.57;;;23.70;61.30;;;;;;5071474;28;20066;-62
2022/06/28 12:13:10;;;;;;;3.70;0.65;;;23.80;60.60;;;;;;5062927;28;20024;-62
2022/06/28 12:15:51;;;;;;;2.95;0.52;;;23.80;60.60;;;;;;5071153;28;20043;-62
2022/06/28 12:18:17;;;;;;;3.40;1.00;;;23.70;61.00;;;;;;5072865;28;20029;-62
2022/06/28 12:20:55;;;;;;;3.70;1.17;;;23.50;60.80;;;;;;5074841;28;20024;-62
2022/06/28 12:23:20;;;;;;;1.58;0.60;;;23.30;61.60;;;;;;5070785;28;20050;-62
2022/06/28 12:25:46;;;;;;;2.85;0.77;;;23.30;63.60;;;;;;5072966;28;20025;-62
2022/06/28 12:28:29;;;;;;;3.08;0.60;;;23.40;62.40;;;;;;5066052;28;20051;-62
2022/06/28 12:30:55;;;;;;;2.00;0.35;;;23.50;62.40;;;;;;5060294;28;20047;-62
2022/06/28 12:33:20;;;;;;;1.92;0.40;;;23.80;62.40;;;;;;5065359;28;20510;-62
2022/06/28 12:35:45;;;;;;;0.93;0.30;;;24.30;61.90;;;;;;5067069;28;20036;-62
2022/06/28 12:38:11;;;;;;;1.25;0.40;;;24.70;61.30;;;;;;5066727;28;20021;-62
2022/06/28 12:40:36;;;;;;;2.97;0.70;;;25.10;60.00;;;;;;5063837;28;20436;-62
2022/06/28 12:43:02;;;;;;;5.63;1.00;;;25.00;57.50;;;;;;5058715;28;20444;-62
2022/06/28 12:45:28;;;;;;;1.23;0.40;;;24.80;57.50;;;;;;5064271;28;20056;-62
2022/06/28 12:47:53;;;;;;;3.80;0.80;;;24.90;58.50;;;;;;5063967;28;20023;-62
2022/06/28 12:50:19;;;;;;;2.58;0.70;;;24.90;57.10;;;;;;5055893;28;20496;-62
2022/06/28 12:52:46;;;;;;;3.15;0.68;;;24.60;57.90;;;;;;5057137;28;20024;-62
2022/06/28 12:55:12;;;;;;;1.27;0.50;;;24.30;58.10;;;;;;5057792;28;20036;-61
2022/06/28 12:57:39;;;;;;;3.00;0.70;;;24.30;57.70;;;;;;5061254;28;20017;-62
2022/06/28 13:00:08;;;;;;;1.73;0.60;;;24.30;58.30;;;;;;5070382;28;20020;-62
2022/06/28 13:02:34;;;;;;;2.65;0.75;;;24.30;58.70;;;;;;5064572;28;20051;-62
2022/06/28 13:05:00;;;;;;;2.90;0.70;;;24.50;58.60;;;;;;5059384;28;20409;-62
2022/06/28 13:07:25;;;;;;;3.17;0.77;;;24.60;58.80;;;;;;5060880;28;20040;-62